Shibin el-Kom, Egypt
Current Conditions -  °F | °C
As of 3:30 PM on Saturday 25 Oct 2014 (Local Time) from HECA Reporting Station
Clear Clear  
Wind Chill: 91°   Ceiling: Unl
Heat Index: 91°   Visibility: 6mi
Dew Point: 39°   Wind: 0mph
Humidity: 16%   Direction: NA
Pressure: 29.91"   Gusts: NA
Location:  30.59°N, 30.9°E
Report Text: HECA 251330Z 00000KT CAVOK 33/04 Q1013 NOSIG
Loading
Personal Weather Stations






























Interactive Weather Map
Tropical Storm Tracking
New forecast layout! Learn more

10-Day Weather Forecast

Advertisements
Track Severe Weather on mobile